createdAt,value
2023-04-01T00:00:21.094Z,94.52
2023-04-01T00:01:21.113Z,94.32
2023-04-01T00:02:21.143Z,93.90
2023-04-01T00:03:21.121Z,94.42
2023-04-01T00:04:21.094Z,94.73
2023-04-01T00:05:21.041Z,94.52
2023-04-01T00:06:21.089Z,94.93
2023-04-01T00:07:21.046Z,95.03
2023-04-01T00:08:21.033Z,94.98
2023-04-01T00:09:21.022Z,95.18
2023-04-01T00:10:21.023Z,94.83
2023-04-01T00:11:21.075Z,95.03
2023-04-01T00:12:21.046Z,94.73
2023-04-01T00:13:21.013Z,94.73
2023-04-01T00:14:21.025Z,94.32
2023-04-01T00:15:20.984Z,94.93
2023-04-01T00:16:22.598Z,95.24
2023-04-01T00:17:22.033Z,94.42
2023-04-01T00:18:20.975Z,94.62
2023-04-01T00:19:20.978Z,95.24
2023-04-01T00:20:20.992Z,95.44
2023-04-01T00:21:20.968Z,95.44
2023-04-01T00:22:21.024Z,95.34
2023-04-01T00:23:20.946Z,95.24
2023-04-01T00:24:21.967Z,95.03
2023-04-01T00:25:20.958Z,95.54
2023-04-01T00:26:20.936Z,95.44
2023-04-01T00:27:20.948Z,95.75
2023-04-01T00:28:20.991Z,95.34
2023-04-01T00:29:21.025Z,95.44
2023-04-01T00:30:20.929Z,95.44
2023-04-01T00:31:20.976Z,95.54
2023-04-01T00:32:20.977Z,95.24
2023-04-01T00:33:20.941Z,95.34
2023-04-01T00:34:20.899Z,95.14
2023-04-01T00:35:20.902Z,95.03
2023-04-01T00:36:20.918Z,94.83
2023-04-01T00:37:20.897Z,94.93
2023-04-01T00:38:20.917Z,94.93
2023-04-01T00:39:20.880Z,95.24
2023-04-01T00:40:20.892Z,95.34
2023-04-01T00:41:20.875Z,95.54
2023-04-01T00:42:20.878Z,95.54
2023-04-01T00:43:20.930Z,95.14
2023-04-01T00:44:20.921Z,95.39
2023-04-01T00:45:20.852Z,95.14
2023-04-01T00:46:20.914Z,94.93
2023-04-01T00:47:20.838Z,94.67
2023-04-01T00:48:20.830Z,94.98
2023-04-01T00:49:20.853Z,94.83
2023-04-01T00:50:20.880Z,95.44
2023-04-01T00:51:20.832Z,94.83
2023-04-01T00:52:20.819Z,95.49
2023-04-01T00:53:20.850Z,94.62
2023-04-01T00:54:20.877Z,94.73
2023-04-01T00:55:20.804Z,94.77
2023-04-01T00:56:20.879Z,95.34
2023-04-01T00:57:20.828Z,95.34
2023-04-01T00:58:20.796Z,94.77
2023-04-01T00:59:20.791Z,95.18
2023-04-01T01:00:20.793Z,95.59
2023-04-01T01:01:20.865Z,95.39
2023-04-01T01:02:20.825Z,95.49
2023-04-01T01:03:20.820Z,95.18
2023-04-01T01:04:20.758Z,95.59
2023-04-01T01:05:20.785Z,95.34
2023-04-01T01:06:20.801Z,95.44
2023-04-01T01:07:20.765Z,95.28
2023-04-01T01:08:20.804Z,95.18
2023-04-01T01:09:20.766Z,94.93
2023-04-01T01:10:20.734Z,95.54
2023-04-01T01:11:20.756Z,95.34
2023-04-01T01:12:20.754Z,94.52
2023-04-01T01:13:20.732Z,95.65
2023-04-01T01:14:20.708Z,94.77
2023-04-01T01:15:20.764Z,95.39
2023-04-01T01:16:20.782Z,95.28
2023-04-01T01:17:20.818Z,94.62
2023-04-01T01:18:20.688Z,94.87
2023-04-01T01:19:20.694Z,94.98
2023-04-01T01:20:26.557Z,94.77
2023-04-01T01:21:22.679Z,94.87
2023-04-01T01:22:20.728Z,95.59
2023-04-01T01:23:20.663Z,95.39
2023-04-01T01:24:20.663Z,95.07
2023-04-01T01:25:21.650Z,95.24
2023-04-01T01:26:20.649Z,94.87
2023-04-01T01:27:20.685Z,94.98
2023-04-01T01:28:20.716Z,94.87
2023-04-01T01:29:20.649Z,95.07
2023-04-01T01:30:20.655Z,94.77
2023-04-01T01:31:20.636Z,94.67
2023-04-01T01:32:20.674Z,94.87
2023-04-01T01:33:20.708Z,94.67
2023-04-01T01:34:20.620Z,95.07
2023-04-01T01:35:20.648Z,95.07
2023-04-01T01:36:20.661Z,94.98
2023-04-01T01:37:20.636Z,95.49
2023-04-01T01:38:20.589Z,95.59
2023-04-01T01:39:20.582Z,95.49
2023-04-01T01:40:20.581Z,95.07
2023-04-01T01:41:20.574Z,94.77
2023-04-01T01:42:20.589Z,94.46
2023-04-01T01:43:20.657Z,94.98
2023-04-01T01:44:20.559Z,94.98
2023-04-01T01:45:20.537Z,95.14
2023-04-01T01:46:20.600Z,94.21
2023-04-01T01:47:20.542Z,94.56
2023-04-01T01:48:20.567Z,94.67
2023-04-01T01:49:20.536Z,95.07
2023-04-01T01:50:20.518Z,94.15
2023-04-01T01:51:20.523Z,94.46
2023-04-01T01:52:20.527Z,94.67
2023-04-01T01:53:20.565Z,93.95
2023-04-01T01:54:20.503Z,94.05
2023-04-01T01:55:20.492Z,94.56
2023-04-01T01:56:20.509Z,94.56
2023-04-01T01:57:20.489Z,94.36
2023-04-01T01:58:20.496Z,94.36
2023-04-01T01:59:20.532Z,94.36
2023-04-01T02:00:20.469Z,94.46
2023-04-01T02:01:20.503Z,94.46
2023-04-01T02:02:20.467Z,94.67
2023-04-01T02:03:20.476Z,94.15
2023-04-01T02:04:20.525Z,94.15
2023-04-01T02:05:20.476Z,93.95
2023-04-01T02:06:20.450Z,94.26
2023-04-01T02:07:20.434Z,94.15
2023-04-01T02:08:20.432Z,94.36
2023-04-01T02:09:20.424Z,94.15
2023-04-01T02:10:20.475Z,94.56
2023-04-01T02:11:20.401Z,94.46
2023-04-01T02:12:20.405Z,94.36
2023-04-01T02:13:20.409Z,94.26
2023-04-01T02:14:20.407Z,94.67
2023-04-01T02:15:20.418Z,94.46
2023-04-01T02:16:20.488Z,94.05
2023-04-01T02:17:20.397Z,94.46
2023-04-01T02:18:20.378Z,94.56
2023-04-01T02:19:20.368Z,94.40
2023-04-01T02:20:20.381Z,94.36
2023-04-01T02:21:20.377Z,94.56
2023-04-01T02:22:20.381Z,94.61
2023-04-01T02:23:20.340Z,94.87
2023-04-01T02:24:20.334Z,94.51
2023-04-01T02:25:20.332Z,94.71
2023-04-01T02:26:20.342Z,94.46
2023-04-01T02:27:20.366Z,94.05
2023-04-01T02:28:20.330Z,94.77
2023-04-01T02:29:20.324Z,94.77
2023-04-01T02:30:20.327Z,94.71
2023-04-01T02:31:20.398Z,94.71
2023-04-01T02:32:20.344Z,94.61
2023-04-01T02:33:20.332Z,94.51
2023-04-01T02:34:20.329Z,95.02
2023-04-01T02:35:20.280Z,94.40
2023-04-01T02:36:20.291Z,94.81
2023-04-01T02:37:20.260Z,94.36
2023-04-01T02:38:20.301Z,94.87
2023-04-01T02:39:20.258Z,94.71
2023-04-01T02:40:20.243Z,94.51
2023-04-01T02:41:20.250Z,94.20
2023-04-01T02:42:20.245Z,95.23
2023-04-01T02:43:20.283Z,95.43
2023-04-01T02:44:20.241Z,95.32
2023-04-01T02:45:20.226Z,95.12
2023-04-01T02:46:20.288Z,95.23
2023-04-01T02:47:20.212Z,95.94
2023-04-01T02:48:20.297Z,95.74
2023-04-01T02:49:20.214Z,95.94
2023-04-01T02:50:20.198Z,95.94
2023-04-01T02:51:20.198Z,95.94
2023-04-01T02:52:20.199Z,96.60
2023-04-01T02:53:20.254Z,96.97
2023-04-01T02:54:20.232Z,96.35
2023-04-01T02:55:20.205Z,96.40
2023-04-01T02:56:20.170Z,96.56
2023-04-01T02:57:20.229Z,96.30
2023-04-01T02:58:20.158Z,96.35
2023-04-01T02:59:20.182Z,96.25
2023-04-01T03:00:20.165Z,96.15
2023-04-01T03:01:20.189Z,96.25
2023-04-01T03:02:20.182Z,96.25
2023-04-01T03:03:20.193Z,96.40
2023-04-01T03:04:20.162Z,96.50
2023-04-01T03:05:20.125Z,96.56
2023-04-01T03:06:20.132Z,96.56
2023-04-01T03:07:20.126Z,96.66
2023-04-01T03:08:20.116Z,96.45
2023-04-01T03:09:20.147Z,96.66
2023-04-01T03:10:20.100Z,96.45
2023-04-01T03:11:20.090Z,96.35
2023-04-01T03:12:20.078Z,96.15
2023-04-01T03:13:20.089Z,96.77
2023-04-01T03:14:20.131Z,95.84
2023-04-01T03:15:20.111Z,95.68
2023-04-01T03:16:20.106Z,95.27
2023-04-01T03:17:20.069Z,95.89
2023-04-01T03:18:20.047Z,96.15
2023-04-01T03:19:20.064Z,95.37
2023-04-01T03:20:20.062Z,95.43
2023-04-01T03:21:20.050Z,95.43
2023-04-01T03:22:20.030Z,95.64
2023-04-01T03:23:20.022Z,95.64
2023-04-01T03:24:20.036Z,94.81
2023-04-01T03:25:20.063Z,94.81
2023-04-01T03:26:20.108Z,95.02
2023-04-01T03:27:20.009Z,94.51
2023-04-01T03:28:20.000Z,94.61
2023-04-01T03:29:19.994Z,95.02
2023-04-01T03:30:20.035Z,95.12
2023-04-01T03:31:21.636Z,94.92
2023-04-01T03:32:20.013Z,95.02
2023-04-01T03:33:19.972Z,94.81
2023-04-01T03:34:19.980Z,94.71
2023-04-01T03:35:19.971Z,95.32
2023-04-01T03:36:20.011Z,95.32
2023-04-01T03:37:19.958Z,95.12
2023-04-01T03:38:19.944Z,95.53
2023-04-01T03:39:19.946Z,94.61
2023-04-01T03:40:19.963Z,94.71
2023-04-01T03:41:19.999Z,95.02
2023-04-01T03:42:19.983Z,94.92
2023-04-01T03:43:19.911Z,94.40
2023-04-01T03:44:19.937Z,94.30
2023-04-01T03:45:19.914Z,94.81
2023-04-01T03:46:20.015Z,95.02
2023-04-01T03:47:19.909Z,94.67
2023-04-01T03:48:19.957Z,94.51
2023-04-01T03:49:19.888Z,94.71
2023-04-01T03:50:19.884Z,94.51
2023-04-01T03:51:19.875Z,94.20
2023-04-01T03:52:19.954Z,94.04
2023-04-01T03:53:19.907Z,94.71
2023-04-01T03:54:19.867Z,95.23
2023-04-01T03:55:19.867Z,95.53
2023-04-01T03:56:19.860Z,95.23
2023-04-01T03:57:19.865Z,95.32
2023-04-01T03:58:19.909Z,95.64
2023-04-01T03:59:19.843Z,95.02
2023-04-01T04:00:19.820Z,95.43
2023-04-01T04:01:19.830Z,94.76
2023-04-01T04:02:19.841Z,95.64
2023-04-01T04:03:19.952Z,94.76
2023-04-01T04:04:19.933Z,95.23
2023-04-01T04:05:19.819Z,95.68
2023-04-01T04:06:19.811Z,95.53
2023-04-01T04:07:19.795Z,94.92
2023-04-01T04:08:19.804Z,94.92
2023-04-01T04:09:19.835Z,94.81
2023-04-01T04:10:19.839Z,94.81
2023-04-01T04:11:19.786Z,95.02
2023-04-01T04:12:19.869Z,95.53
2023-04-01T04:13:19.875Z,95.47
2023-04-01T04:14:20.765Z,95.47
2023-04-01T04:15:19.820Z,95.57
2023-04-01T04:16:19.791Z,95.57
2023-04-01T04:17:19.750Z,95.68
2023-04-01T04:18:19.748Z,95.47
2023-04-01T04:19:19.752Z,95.06
2023-04-01T04:20:19.792Z,94.96
2023-04-01T04:21:19.760Z,95.47
2023-04-01T04:22:19.737Z,95.37
2023-04-01T04:23:19.731Z,95.47
2023-04-01T04:24:20.718Z,94.85
2023-04-01T04:25:19.761Z,94.85
2023-04-01T04:26:19.757Z,94.85
2023-04-01T04:27:19.704Z,95.47
2023-04-01T04:28:19.688Z,95.06
2023-04-01T04:29:19.762Z,94.85
2023-04-01T04:30:19.682Z,94.85
2023-04-01T04:31:19.743Z,95.17
2023-04-01T04:32:19.679Z,94.85
2023-04-01T04:33:19.738Z,95.47
2023-04-01T04:34:19.669Z,94.85
2023-04-01T04:35:19.655Z,94.96
2023-04-01T04:36:19.743Z,95.06
2023-04-01T04:37:19.757Z,95.57
2023-04-01T04:38:19.648Z,95.27
2023-04-01T04:39:19.645Z,94.85
2023-04-01T04:40:19.634Z,95.47
2023-04-01T04:41:19.675Z,94.76
2023-04-01T04:42:19.607Z,95.06
2023-04-01T04:43:19.655Z,95.17
2023-04-01T04:44:19.600Z,95.17
2023-04-01T04:45:19.607Z,95.68
2023-04-01T04:46:19.709Z,95.47
2023-04-01T04:47:19.716Z,95.57
2023-04-01T04:48:20.579Z,94.96
2023-04-01T04:49:19.606Z,95.17
2023-04-01T04:50:19.585Z,94.85
2023-04-01T04:51:19.629Z,94.65
2023-04-01T04:52:19.599Z,94.30
2023-04-01T04:53:19.685Z,94.85
2023-04-01T04:54:19.571Z,94.76
2023-04-01T04:55:19.566Z,95.21
2023-04-01T04:56:19.542Z,95.06
2023-04-01T04:57:20.586Z,95.62
2023-04-01T04:58:19.540Z,95.17
2023-04-01T04:59:19.519Z,95.47
2023-04-01T05:00:19.532Z,95.37
2023-04-01T05:01:19.571Z,95.06
2023-04-01T05:02:19.584Z,95.68
2023-04-01T05:03:19.639Z,95.57
2023-04-01T05:04:19.522Z,95.37
2023-04-01T05:05:19.492Z,95.37
2023-04-01T05:06:20.528Z,95.37
2023-04-01T05:07:19.502Z,95.68
2023-04-01T05:08:19.515Z,95.68
2023-04-01T05:09:19.469Z,95.42
2023-04-01T05:10:19.480Z,95.42
2023-04-01T05:11:19.482Z,95.42
2023-04-01T05:12:19.460Z,95.27
2023-04-01T05:13:19.481Z,95.21
2023-04-01T05:14:19.482Z,95.37
2023-04-01T05:15:19.439Z,95.31
2023-04-01T05:16:19.537Z,96.34
2023-04-01T05:17:19.463Z,96.30
2023-04-01T05:18:19.472Z,96.40
2023-04-01T05:19:19.491Z,95.78
2023-04-01T05:20:19.435Z,95.93
2023-04-01T05:21:19.440Z,96.34
2023-04-01T05:22:19.398Z,96.19
2023-04-01T05:23:19.444Z,96.09
2023-04-01T05:24:19.396Z,96.14
2023-04-01T05:25:19.415Z,96.40
2023-04-01T05:26:19.483Z,96.44
2023-04-01T05:27:19.384Z,96.95
2023-04-01T05:28:19.371Z,96.81
2023-04-01T05:29:19.360Z,96.30
2023-04-01T05:30:19.443Z,96.19
2023-04-01T05:31:19.532Z,97.02
2023-04-01T05:32:19.368Z,96.09
2023-04-01T05:33:19.352Z,96.30
2023-04-01T05:34:19.350Z,96.14
2023-04-01T05:35:19.343Z,96.85
2023-04-01T05:36:19.448Z,96.65
2023-04-01T05:37:19.378Z,96.70
2023-04-01T05:38:19.331Z,97.06
2023-04-01T05:39:19.319Z,97.02
2023-04-01T05:40:19.332Z,96.50
2023-04-01T05:41:19.368Z,97.16
2023-04-01T05:42:19.329Z,96.40
2023-04-01T05:43:19.324Z,96.75
2023-04-01T05:44:19.305Z,96.95
2023-04-01T05:45:19.290Z,97.06
2023-04-01T05:46:19.362Z,97.16
2023-04-01T05:47:19.309Z,97.27
2023-04-01T05:48:19.340Z,96.65
2023-04-01T05:49:19.288Z,96.55
2023-04-01T05:50:19.288Z,96.50
2023-04-01T05:51:19.282Z,96.65
2023-04-01T05:52:19.320Z,96.50
2023-04-01T05:53:19.428Z,96.50
2023-04-01T05:54:19.261Z,96.65
2023-04-01T05:55:19.259Z,96.85
2023-04-01T05:56:19.290Z,97.32
2023-04-01T05:57:19.327Z,97.06
2023-04-01T05:58:19.212Z,97.37
2023-04-01T05:59:19.251Z,96.85
2023-04-01T06:00:19.213Z,97.02
2023-04-01T06:01:19.219Z,97.06
2023-04-01T06:02:19.288Z,96.95
2023-04-01T06:03:19.278Z,97.06
2023-04-01T06:04:19.359Z,96.91
2023-04-01T06:05:19.202Z,97.22
2023-04-01T06:06:19.186Z,96.70
2023-04-01T06:07:19.225Z,96.50
2023-04-01T06:08:20.113Z,96.60
2023-04-01T06:09:20.227Z,97.16
2023-04-01T06:10:19.170Z,96.40
2023-04-01T06:11:19.185Z,96.50
2023-04-01T06:12:19.168Z,96.44
2023-04-01T06:13:19.218Z,96.91
2023-04-01T06:14:19.152Z,97.02
2023-04-01T06:15:19.267Z,96.60
2023-04-01T06:16:20.192Z,97.02
2023-04-01T06:17:19.164Z,96.91
2023-04-01T06:18:19.206Z,97.02
2023-04-01T06:19:19.221Z,96.70
2023-04-01T06:20:19.122Z,96.91
2023-04-01T06:21:19.119Z,96.35
2023-04-01T06:22:19.134Z,96.50
2023-04-01T06:23:19.094Z,96.66
2023-04-01T06:24:19.148Z,96.81
2023-04-01T06:25:19.109Z,96.15
2023-04-01T06:26:19.144Z,96.25
2023-04-01T06:27:19.127Z,96.15
2023-04-01T06:28:19.096Z,96.35
2023-04-01T06:29:19.126Z,96.04
2023-04-01T06:30:19.070Z,95.74
2023-04-01T06:31:19.129Z,95.23
2023-04-01T06:32:19.193Z,96.25
2023-04-01T06:33:19.085Z,96.04
2023-04-01T06:34:19.058Z,95.69
2023-04-01T06:35:19.093Z,96.25
2023-04-01T06:36:19.080Z,95.59
2023-04-01T06:37:19.035Z,95.84
2023-04-01T06:38:19.045Z,96.25
2023-04-01T06:39:19.058Z,95.90
2023-04-01T06:40:19.107Z,95.18
2023-04-01T06:41:19.034Z,95.49
2023-04-01T06:42:19.028Z,95.07
2023-04-01T06:43:19.203Z,95.49
2023-04-01T06:44:19.028Z,95.74
2023-04-01T06:45:19.063Z,94.92
2023-04-01T06:46:19.046Z,95.43
2023-04-01T06:47:19.033Z,95.53
2023-04-01T06:48:19.004Z,95.23
2023-04-01T06:49:18.983Z,95.74
2023-04-01T06:50:18.983Z,96.15
2023-04-01T06:51:18.980Z,96.15
2023-04-01T06:52:19.020Z,96.20
2023-04-01T06:53:18.970Z,96.26
2023-04-01T06:54:18.983Z,95.28
2023-04-01T06:55:19.580Z,94.98
2023-04-01T06:56:18.968Z,95.28
2023-04-01T06:57:19.277Z,95.18
2023-04-01T06:58:18.952Z,95.28
2023-04-01T06:59:19.920Z,95.43
2023-04-01T07:00:18.935Z,95.23
2023-04-01T07:01:19.943Z,96.10
2023-04-01T07:02:18.954Z,96.00
2023-04-01T07:03:18.908Z,96.15
2023-04-01T07:04:18.966Z,96.20
2023-04-01T07:05:18.889Z,96.20
2023-04-01T07:06:18.909Z,96.35
2023-04-01T07:07:18.937Z,96.41
2023-04-01T07:08:18.886Z,95.28
2023-04-01T07:09:18.881Z,95.49
2023-04-01T07:10:18.864Z,96.10
2023-04-01T07:11:18.881Z,96.26
2023-04-01T07:12:18.901Z,96.16
2023-04-01T07:13:18.878Z,95.70
2023-04-01T07:14:18.860Z,95.24
2023-04-01T07:15:18.855Z,95.29
2023-04-01T07:16:18.988Z,94.42
2023-04-01T07:17:18.907Z,94.37
2023-04-01T07:18:19.853Z,94.32
2023-04-01T07:19:18.837Z,94.62
2023-04-01T07:20:18.832Z,93.90
2023-04-01T07:21:18.834Z,94.27
2023-04-01T07:22:18.827Z,94.37
2023-04-01T07:23:18.847Z,94.07
2023-04-01T07:24:18.820Z,94.17
2023-04-01T07:25:18.843Z,94.54
2023-04-01T07:26:18.792Z,94.07
2023-04-01T07:27:18.802Z,93.71
2023-04-01T07:28:18.847Z,92.38
2023-04-01T07:29:18.801Z,92.59
2023-04-01T07:30:18.780Z,93.20
2023-04-01T07:31:18.803Z,93.10
2023-04-01T07:32:18.769Z,93.41
2023-04-01T07:33:18.777Z,92.38
2023-04-01T07:34:18.760Z,92.38
2023-04-01T07:35:18.822Z,91.87
2023-04-01T07:36:18.743Z,92.14
2023-04-01T07:37:18.723Z,92.14
2023-04-01T07:38:18.804Z,91.97
2023-04-01T07:39:18.761Z,92.44
2023-04-01T07:40:18.713Z,92.44
2023-04-01T07:41:19.232Z,91.73
2023-04-01T07:42:19.756Z,91.11
2023-04-01T07:43:18.702Z,91.42
2023-04-01T07:44:18.808Z,91.31
2023-04-01T07:45:18.743Z,91.83
2023-04-01T07:46:18.777Z,91.73
2023-04-01T07:47:18.740Z,91.22
2023-04-01T07:48:18.667Z,90.81
2023-04-01T07:49:18.688Z,91.22
2023-04-01T07:50:18.682Z,91.78
2023-04-01T07:51:18.657Z,91.58
2023-04-01T07:52:18.672Z,91.63
2023-04-01T07:53:18.671Z,91.99
2023-04-01T07:54:18.707Z,91.48
2023-04-01T07:55:18.646Z,91.38
2023-04-01T07:56:18.665Z,91.27
2023-04-01T07:57:18.644Z,90.15
2023-04-01T07:58:18.635Z,90.72
2023-04-01T07:59:18.627Z,90.41
2023-04-01T08:00:18.630Z,89.70
2023-04-01T08:01:18.625Z,89.12
2023-04-01T08:02:18.724Z,88.92
2023-04-01T08:03:18.721Z,89.53
2023-04-01T08:04:18.665Z,90.21
2023-04-01T08:05:18.586Z,90.31
2023-04-01T08:06:18.614Z,90.21
2023-04-01T08:07:18.608Z,89.18
2023-04-01T08:08:18.588Z,89.35
2023-04-01T08:09:18.550Z,89.29
2023-04-01T08:10:18.646Z,89.56
2023-04-01T08:11:18.552Z,89.39
2023-04-01T08:12:18.556Z,89.25
2023-04-01T08:13:18.527Z,89.18
2023-04-01T08:14:18.530Z,89.76
2023-04-01T08:15:18.508Z,89.56
2023-04-01T08:16:18.754Z,89.15
2023-04-01T08:17:18.526Z,89.45
2023-04-01T08:18:18.524Z,89.35
2023-04-01T08:19:18.580Z,90.37
2023-04-01T08:20:18.485Z,89.86
2023-04-01T08:21:18.489Z,90.23
2023-04-01T08:22:18.463Z,88.53
2023-04-01T08:23:18.479Z,89.41
2023-04-01T08:24:19.767Z,89.41
2023-04-01T08:25:18.465Z,88.94
2023-04-01T08:26:18.448Z,89.56
2023-04-01T08:27:18.449Z,89.72
2023-04-01T08:28:18.464Z,88.53
2023-04-01T08:29:18.422Z,89.20
2023-04-01T08:30:18.412Z,89.20
2023-04-01T08:31:18.480Z,90.02
2023-04-01T08:32:18.415Z,89.82
2023-04-01T08:33:18.423Z,89.51
2023-04-01T08:34:18.418Z,88.96
2023-04-01T08:35:18.409Z,88.59
2023-04-01T08:36:18.452Z,89.11
2023-04-01T08:37:18.394Z,89.00
2023-04-01T08:38:18.495Z,89.45
2023-04-01T08:39:18.432Z,89.51
2023-04-01T08:40:18.352Z,88.94
2023-04-01T08:41:18.333Z,87.67
2023-04-01T08:42:18.341Z,88.59
2023-04-01T08:43:18.328Z,88.70
2023-04-01T08:44:18.379Z,88.85
2023-04-01T08:45:18.312Z,88.96
2023-04-01T08:46:18.435Z,88.65
2023-04-01T08:47:18.307Z,88.24
2023-04-01T08:48:18.371Z,87.84
2023-04-01T08:49:18.383Z,88.71
2023-04-01T08:50:18.299Z,89.02
2023-04-01T08:51:18.363Z,88.61
2023-04-01T08:52:18.341Z,87.08
2023-04-01T08:53:18.278Z,87.29
2023-04-01T08:54:18.323Z,85.75
2023-04-01T08:55:18.266Z,87.23
2023-04-01T08:56:18.274Z,87.63
2023-04-01T08:57:18.274Z,88.31
2023-04-01T08:58:18.235Z,88.51
2023-04-01T08:59:18.236Z,88.82
2023-04-01T09:00:18.228Z,88.82
2023-04-01T09:01:18.270Z,88.10
2023-04-01T09:02:18.248Z,87.38
2023-04-01T09:03:18.298Z,86.47
2023-04-01T09:04:18.236Z,87.18
2023-04-01T09:05:18.176Z,87.29
2023-04-01T09:06:18.281Z,87.79
2023-04-01T09:07:18.496Z,87.49
2023-04-01T09:08:18.214Z,87.29
2023-04-01T09:09:18.150Z,87.38
2023-04-01T09:10:18.156Z,87.18
2023-04-01T09:11:18.397Z,87.18
2023-04-01T09:12:18.172Z,87.29
2023-04-01T09:13:18.123Z,87.63
2023-04-01T09:14:18.116Z,87.90
2023-04-01T09:15:18.137Z,87.90
2023-04-01T09:16:18.160Z,86.77
2023-04-01T09:17:18.166Z,87.49
2023-04-01T09:18:18.094Z,87.49
2023-04-01T09:19:18.086Z,87.59
2023-04-01T09:20:18.066Z,87.29
2023-04-01T09:21:18.074Z,86.36
2023-04-01T09:22:18.101Z,86.88
2023-04-01T09:23:18.101Z,87.23
2023-04-01T09:24:18.057Z,87.94
2023-04-01T09:25:18.043Z,87.53
2023-04-01T09:26:18.056Z,87.12
2023-04-01T09:27:18.069Z,87.73
2023-04-01T09:28:18.047Z,88.10
2023-04-01T09:29:18.067Z,88.76
2023-04-01T09:30:18.015Z,88.61
2023-04-01T09:31:18.015Z,88.17
2023-04-01T09:32:18.011Z,88.17
2023-04-01T09:33:18.082Z,88.73
2023-04-01T09:34:18.028Z,88.32
2023-04-01T09:35:17.970Z,88.12
2023-04-01T09:36:18.036Z,87.30
2023-04-01T09:37:17.972Z,86.39
2023-04-01T09:38:18.035Z,86.49
2023-04-01T09:39:17.964Z,84.08
2023-04-01T09:40:17.954Z,86.06
2023-04-01T09:41:17.943Z,87.29
2023-04-01T09:42:18.069Z,87.29
2023-04-01T09:43:17.954Z,86.47
2023-04-01T09:44:17.923Z,85.14
2023-04-01T09:45:18.066Z,86.77
2023-04-01T09:46:18.001Z,86.36
2023-04-01T09:47:18.030Z,86.20
2023-04-01T09:48:17.906Z,87.32
2023-04-01T09:49:17.877Z,87.49
2023-04-01T09:50:18.024Z,87.45
2023-04-01T09:51:17.905Z,86.94
2023-04-01T09:52:17.937Z,87.35
2023-04-01T09:53:17.846Z,86.83
2023-04-01T09:54:17.868Z,86.73
2023-04-01T09:55:17.901Z,86.59
2023-04-01T09:56:17.833Z,86.12
2023-04-01T09:57:17.931Z,84.96
2023-04-01T09:58:17.813Z,84.90
2023-04-01T09:59:17.829Z,86.73
2023-04-01T10:00:17.900Z,87.20
2023-04-01T10:01:17.847Z,86.39
2023-04-01T10:02:17.786Z,86.55
2023-04-01T10:03:17.784Z,86.41
2023-04-01T10:04:17.836Z,85.08
2023-04-01T10:05:17.794Z,84.53
2023-04-01T10:06:17.833Z,84.50
2023-04-01T10:07:17.768Z,84.09
2023-04-01T10:08:17.730Z,84.59
2023-04-01T10:09:17.780Z,84.86
2023-04-01T10:10:17.852Z,85.00
2023-04-01T10:11:17.766Z,83.48
2023-04-01T10:12:17.761Z,82.80
2023-04-01T10:13:17.710Z,84.12
2023-04-01T10:14:17.730Z,85.96
2023-04-01T10:15:17.683Z,86.57
2023-04-01T10:16:17.790Z,84.39
2023-04-01T10:17:17.672Z,84.43
2023-04-01T10:18:17.676Z,84.64
2023-04-01T10:19:17.763Z,84.80
2023-04-01T10:20:17.664Z,84.59
2023-04-01T10:21:17.619Z,84.43
2023-04-01T10:22:17.628Z,85.05
2023-04-01T10:23:17.650Z,85.14
2023-04-01T10:24:17.656Z,85.55
2023-04-01T10:25:18.613Z,86.57
2023-04-01T10:26:17.597Z,86.82
2023-04-01T10:27:17.646Z,86.30
2023-04-01T10:28:17.585Z,87.06
2023-04-01T10:29:17.785Z,87.77
2023-04-01T10:30:17.584Z,88.18
2023-04-01T10:31:17.637Z,87.06
2023-04-01T10:32:17.559Z,86.04
2023-04-01T10:33:17.559Z,86.15
2023-04-01T10:34:17.732Z,87.16
2023-04-01T10:35:17.550Z,87.71
2023-04-01T10:36:18.054Z,87.41
2023-04-01T10:37:17.695Z,87.10
2023-04-01T10:38:18.039Z,87.10
2023-04-01T10:39:17.530Z,87.61
2023-04-01T10:40:17.508Z,87.98
2023-04-01T10:41:17.485Z,87.47
2023-04-01T10:42:18.127Z,87.16
2023-04-01T10:43:17.871Z,87.16
2023-04-01T10:44:17.486Z,87.16
2023-04-01T10:45:17.477Z,86.41
2023-04-01T10:46:17.754Z,86.00
2023-04-01T10:47:17.446Z,86.00
2023-04-01T10:48:17.464Z,86.71
2023-04-01T10:49:17.491Z,86.37
2023-04-01T10:50:17.445Z,85.86
2023-04-01T10:51:17.486Z,84.47
2023-04-01T10:52:17.531Z,84.58
2023-04-01T10:53:17.401Z,84.58
2023-04-01T10:54:17.412Z,84.64
2023-04-01T10:55:17.584Z,84.43
2023-04-01T10:56:17.391Z,83.96
2023-04-01T10:57:17.722Z,83.21
2023-04-01T10:58:17.340Z,83.31
2023-04-01T10:59:17.385Z,84.12
2023-04-01T11:00:17.587Z,84.53
2023-04-01T11:01:17.386Z,83.51
2023-04-01T11:02:17.472Z,83.21
2023-04-01T11:03:17.619Z,83.11
2023-04-01T11:04:17.320Z,84.29
2023-04-01T11:05:20.197Z,84.90
2023-04-01T11:06:17.308Z,84.84
2023-04-01T11:07:17.311Z,84.12
2023-04-01T11:08:17.301Z,83.68
2023-04-01T11:09:17.269Z,84.64
2023-04-01T11:10:17.318Z,85.86
2023-04-01T11:11:17.241Z,86.57
2023-04-01T11:12:17.268Z,84.94
2023-04-01T11:13:17.301Z,84.94
2023-04-01T11:14:17.336Z,84.98
2023-04-01T11:15:17.264Z,84.67
2023-04-01T11:16:18.368Z,84.98
2023-04-01T11:17:18.209Z,86.61
2023-04-01T11:18:17.212Z,87.06
2023-04-01T11:19:18.189Z,87.53
2023-04-01T11:20:17.173Z,87.47
2023-04-01T11:21:17.182Z,87.37
2023-04-01T11:22:17.200Z,87.67
2023-04-01T11:23:17.174Z,87.88
2023-04-01T11:24:17.147Z,88.39
2023-04-01T11:25:17.130Z,88.49
2023-04-01T11:26:18.164Z,88.69
2023-04-01T11:27:17.200Z,88.75
2023-04-01T11:28:17.133Z,88.02
2023-04-01T11:29:17.538Z,88.22
2023-04-01T11:30:17.103Z,88.84
2023-04-01T11:31:17.122Z,88.84
2023-04-01T11:32:17.115Z,88.22
2023-04-01T11:33:19.424Z,88.84
2023-04-01T11:34:17.097Z,88.93
2023-04-01T11:35:17.063Z,90.06
2023-04-01T11:36:17.486Z,88.84
2023-04-01T11:37:17.102Z,89.04
2023-04-01T11:38:17.050Z,88.43
2023-04-01T11:39:17.032Z,88.32
2023-04-01T11:40:17.062Z,89.34
2023-04-01T11:41:17.019Z,89.14
2023-04-01T11:42:17.019Z,88.02
2023-04-01T11:43:26.113Z,86.80
2023-04-01T11:44:19.041Z,88.53
2023-04-01T11:45:17.020Z,88.93
2023-04-01T11:46:17.071Z,89.86
2023-04-01T11:47:16.975Z,89.14
2023-04-01T11:48:17.047Z,89.04
2023-04-01T11:49:16.951Z,89.04
2023-04-01T11:50:16.984Z,89.34
2023-04-01T11:51:16.926Z,89.39
2023-04-01T11:52:16.943Z,89.28
2023-04-01T11:53:16.927Z,89.39
2023-04-01T11:54:16.912Z,90.00
2023-04-01T11:55:16.939Z,90.61
2023-04-01T11:56:16.971Z,90.41
2023-04-01T11:57:16.928Z,90.20
2023-04-01T11:58:16.875Z,91.12
2023-04-01T11:59:16.917Z,90.71
2023-04-01T12:00:16.900Z,90.92
2023-04-01T12:01:16.876Z,90.92
2023-04-01T12:02:18.256Z,91.12
2023-04-01T12:03:17.537Z,90.61
2023-04-01T12:04:16.892Z,90.61
2023-04-01T12:05:16.866Z,90.51
2023-04-01T12:06:17.398Z,90.61
2023-04-01T12:07:16.886Z,90.81
2023-04-01T12:08:17.148Z,91.02
2023-04-01T12:09:16.833Z,89.79
2023-04-01T12:10:16.824Z,90.04
2023-04-01T12:11:16.772Z,90.45
2023-04-01T12:12:16.818Z,90.41
2023-04-01T12:13:16.810Z,90.51
2023-04-01T12:14:16.756Z,90.04
2023-04-01T12:15:16.745Z,90.14
2023-04-01T12:16:16.830Z,90.35
2023-04-01T12:17:16.734Z,90.61
2023-04-01T12:18:16.756Z,90.51
2023-04-01T12:19:16.737Z,90.66
2023-04-01T12:20:16.847Z,90.81
2023-04-01T12:21:16.761Z,90.51
2023-04-01T12:22:16.712Z,90.20
2023-04-01T12:23:16.726Z,90.00
2023-04-01T12:24:16.713Z,89.90
2023-04-01T12:25:16.709Z,89.18
2023-04-01T12:26:16.690Z,89.79
2023-04-01T12:27:16.694Z,89.75
2023-04-01T12:28:16.691Z,89.65
2023-04-01T12:29:16.660Z,90.00
2023-04-01T12:30:16.637Z,88.93
2023-04-01T12:31:16.662Z,89.25
2023-04-01T12:32:16.750Z,89.14
2023-04-01T12:33:16.684Z,88.93
2023-04-01T12:34:16.650Z,88.73
2023-04-01T12:35:16.629Z,89.08
2023-04-01T12:36:16.637Z,88.32
2023-04-01T12:37:16.653Z,89.04
2023-04-01T12:38:16.598Z,88.63
2023-04-01T12:39:16.599Z,89.08
2023-04-01T12:40:16.609Z,89.25
2023-04-01T12:41:16.562Z,89.25
2023-04-01T12:42:16.546Z,89.39
2023-04-01T12:43:16.673Z,88.93
2023-04-01T12:44:16.600Z,89.34
2023-04-01T12:45:16.574Z,88.63
2023-04-01T12:46:16.627Z,88.12
2023-04-01T12:47:16.551Z,88.84
2023-04-01T12:48:16.548Z,89.25
2023-04-01T12:49:16.837Z,88.84
2023-04-01T12:50:16.502Z,89.28
2023-04-01T12:51:16.486Z,89.18
2023-04-01T12:52:16.494Z,89.55